Berlin, Ohio
Current Conditions -  °F | °C
As of 5:53 PM on Friday 31 Oct 2014 (Local Time) from KPHD Reporting Station
Light Rain Light Rain  
Wind Chill: 45°   Ceiling: 1700
Heat Index: 45°   Visibility: 6mi
Dew Point: 41°   Wind: 3mph
Humidity: 86%   Direction: 150°SSE
Pressure: 29.87"   Gusts: NA
Location:  40.56°N, 81.79°W
Report Text: KPHD 312153Z AUTO 15003KT 6SM -RA BR BKN017 OVC022 07/05 A2987 RMK AO2 SLP117 P0001 T00720050
Loading
Personal Weather Stations






























Interactive Weather Map
Tropical Storm Tracking
New forecast layout! Learn more

10-Day Weather Forecast

Advertisements
Track Severe Weather on mobile